sensor_id;sensor_type;location;lat;lon;timestamp;P1;durP1;ratioP1;P2;durP2;ratioP2
6564;SDS011;3316;44.118;27.258;2023-06-26T00:01:30;15.00;;;8.80;;
6564;SDS011;3316;44.118;27.258;2023-06-26T00:03:59;20.27;;;8.70;;
6564;SDS011;3316;44.118;27.258;2023-06-26T00:06:25;24.42;;;8.73;;
6564;SDS011;3316;44.118;27.258;2023-06-26T00:08:51;21.52;;;9.52;;
6564;SDS011;3316;44.118;27.258;2023-06-26T00:11:18;16.30;;;8.77;;
6564;SDS011;3316;44.118;27.258;2023-06-26T00:13:44;23.00;;;8.57;;
6564;SDS011;3316;44.118;27.258;2023-06-26T00:16:10;23.52;;;9.57;;
6564;SDS011;3316;44.118;27.258;2023-06-26T00:18:35;30.77;;;9.05;;
6564;SDS011;3316;44.118;27.258;2023-06-26T00:21:01;24.60;;;9.23;;
6564;SDS011;3316;44.118;27.258;2023-06-26T00:23:26;25.80;;;9.15;;
6564;SDS011;3316;44.118;27.258;2023-06-26T00:25:52;26.42;;;8.90;;
6564;SDS011;3316;44.118;27.258;2023-06-26T00:28:18;21.80;;;8.63;;
6564;SDS011;3316;44.118;27.258;2023-06-26T00:30:44;17.02;;;8.63;;
6564;SDS011;3316;44.118;27.258;2023-06-26T00:33:09;20.05;;;7.88;;
6564;SDS011;3316;44.118;27.258;2023-06-26T00:35:35;22.58;;;8.38;;
6564;SDS011;3316;44.118;27.258;2023-06-26T00:38:00;27.27;;;8.82;;
6564;SDS011;3316;44.118;27.258;2023-06-26T00:40:26;24.30;;;8.90;;
6564;SDS011;3316;44.118;27.258;2023-06-26T00:42:52;14.15;;;8.20;;
6564;SDS011;3316;44.118;27.258;2023-06-26T00:45:18;16.95;;;7.95;;
6564;SDS011;3316;44.118;27.258;2023-06-26T00:47:43;24.80;;;7.60;;
6564;SDS011;3316;44.118;27.258;2023-06-26T00:50:09;17.60;;;8.57;;
6564;SDS011;3316;44.118;27.258;2023-06-26T00:52:35;20.98;;;8.57;;
6564;SDS011;3316;44.118;27.258;2023-06-26T00:55:01;16.23;;;7.35;;
6564;SDS011;3316;44.118;27.258;2023-06-26T00:57:27;16.98;;;8.85;;
6564;SDS011;3316;44.118;27.258;2023-06-26T00:59:52;17.05;;;8.27;;
6564;SDS011;3316;44.118;27.258;2023-06-26T01:02:18;14.70;;;7.68;;
6564;SDS011;3316;44.118;27.258;2023-06-26T01:04:48;20.85;;;8.65;;
6564;SDS011;3316;44.118;27.258;2023-06-26T01:07:16;12.57;;;8.13;;
6564;SDS011;3316;44.118;27.258;2023-06-26T01:09:44;19.45;;;8.63;;
6564;SDS011;3316;44.118;27.258;2023-06-26T01:12:11;20.08;;;9.43;;
6564;SDS011;3316;44.118;27.258;2023-06-26T01:14:37;19.52;;;9.07;;
6564;SDS011;3316;44.118;27.258;2023-06-26T01:17:02;16.27;;;8.20;;
6564;SDS011;3316;44.118;27.258;2023-06-26T01:19:29;14.80;;;8.73;;
6564;SDS011;3316;44.118;27.258;2023-06-26T01:22:02;19.77;;;9.05;;
6564;SDS011;3316;44.118;27.258;2023-06-26T01:24:42;18.60;;;8.80;;
6564;SDS011;3316;44.118;27.258;2023-06-26T01:27:18;16.77;;;8.85;;
6564;SDS011;3316;44.118;27.258;2023-06-26T01:29:47;17.88;;;9.25;;
6564;SDS011;3316;44.118;27.258;2023-06-26T01:32:15;14.95;;;9.35;;
6564;SDS011;3316;44.118;27.258;2023-06-26T01:34:41;20.33;;;9.55;;
6564;SDS011;3316;44.118;27.258;2023-06-26T01:37:07;17.88;;;9.50;;
6564;SDS011;3316;44.118;27.258;2023-06-26T01:39:33;34.25;;;10.55;;
6564;SDS011;3316;44.118;27.258;2023-06-26T01:41:58;17.55;;;9.27;;
6564;SDS011;3316;44.118;27.258;2023-06-26T01:44:28;20.10;;;9.60;;
6564;SDS011;3316;44.118;27.258;2023-06-26T01:47:01;22.38;;;10.13;;
6564;SDS011;3316;44.118;27.258;2023-06-26T01:49:31;25.95;;;9.75;;
6564;SDS011;3316;44.118;27.258;2023-06-26T01:52:06;22.83;;;9.80;;
6564;SDS011;3316;44.118;27.258;2023-06-26T01:55:38;17.10;;;9.35;;
6564;SDS011;3316;44.118;27.258;2023-06-26T01:57:51;20.48;;;9.30;;
6564;SDS011;3316;44.118;27.258;2023-06-26T02:00:19;20.40;;;9.38;;
6564;SDS011;3316;44.118;27.258;2023-06-26T02:02:46;19.80;;;9.13;;
6564;SDS011;3316;44.118;27.258;2023-06-26T02:05:12;21.52;;;9.18;;
6564;SDS011;3316;44.118;27.258;2023-06-26T02:07:38;15.73;;;9.07;;
6564;SDS011;3316;44.118;27.258;2023-06-26T02:10:04;17.40;;;9.60;;
6564;SDS011;3316;44.118;27.258;2023-06-26T02:12:30;19.05;;;8.68;;
6564;SDS011;3316;44.118;27.258;2023-06-26T02:14:55;16.02;;;8.27;;
6564;SDS011;3316;44.118;27.258;2023-06-26T02:17:21;21.15;;;8.65;;
6564;SDS011;3316;44.118;27.258;2023-06-26T02:19:46;21.48;;;8.90;;
6564;SDS011;3316;44.118;27.258;2023-06-26T02:22:15;20.90;;;9.65;;
6564;SDS011;3316;44.118;27.258;2023-06-26T02:24:41;17.45;;;8.63;;
6564;SDS011;3316;44.118;27.258;2023-06-26T02:27:08;18.40;;;8.85;;
6564;SDS011;3316;44.118;27.258;2023-06-26T02:29:34;16.10;;;8.38;;
6564;SDS011;3316;44.118;27.258;2023-06-26T02:31:59;15.10;;;8.27;;
6564;SDS011;3316;44.118;27.258;2023-06-26T02:34:25;16.20;;;9.38;;
6564;SDS011;3316;44.118;27.258;2023-06-26T02:36:50;17.65;;;8.45;;
6564;SDS011;3316;44.118;27.258;2023-06-26T02:39:19;15.02;;;8.05;;
6564;SDS011;3316;44.118;27.258;2023-06-26T02:41:45;14.65;;;9.00;;
6564;SDS011;3316;44.118;27.258;2023-06-26T02:44:10;15.60;;;8.35;;
6564;SDS011;3316;44.118;27.258;2023-06-26T02:46:37;16.45;;;8.27;;
6564;SDS011;3316;44.118;27.258;2023-06-26T02:49:03;19.45;;;8.20;;
6564;SDS011;3316;44.118;27.258;2023-06-26T02:51:28;14.95;;;7.80;;
6564;SDS011;3316;44.118;27.258;2023-06-26T02:53:53;21.75;;;8.02;;
6564;SDS011;3316;44.118;27.258;2023-06-26T02:56:19;17.20;;;8.45;;
6564;SDS011;3316;44.118;27.258;2023-06-26T02:58:44;18.42;;;8.27;;
6564;SDS011;3316;44.118;27.258;2023-06-26T03:01:10;15.07;;;8.70;;
6564;SDS011;3316;44.118;27.258;2023-06-26T03:03:35;19.33;;;9.65;;
6564;SDS011;3316;44.118;27.258;2023-06-26T03:06:05;22.48;;;8.95;;
6564;SDS011;3316;44.118;27.258;2023-06-26T03:08:32;19.98;;;8.52;;
6564;SDS011;3316;44.118;27.258;2023-06-26T03:10:58;18.83;;;8.18;;
6564;SDS011;3316;44.118;27.258;2023-06-26T03:13:24;13.65;;;7.85;;
6564;SDS011;3316;44.118;27.258;2023-06-26T03:15:49;24.25;;;8.68;;
6564;SDS011;3316;44.118;27.258;2023-06-26T03:18:15;17.00;;;8.15;;
6564;SDS011;3316;44.118;27.258;2023-06-26T03:20:40;19.63;;;8.95;;
6564;SDS011;3316;44.118;27.258;2023-06-26T03:23:05;14.98;;;8.00;;
6564;SDS011;3316;44.118;27.258;2023-06-26T03:25:31;23.08;;;8.93;;
6564;SDS011;3316;44.118;27.258;2023-06-26T03:27:57;21.30;;;9.27;;
6564;SDS011;3316;44.118;27.258;2023-06-26T03:30:22;15.45;;;8.27;;
6564;SDS011;3316;44.118;27.258;2023-06-26T03:32:47;25.20;;;9.13;;
6564;SDS011;3316;44.118;27.258;2023-06-26T03:35:13;18.85;;;8.27;;
6564;SDS011;3316;44.118;27.258;2023-06-26T03:37:39;16.83;;;8.27;;
6564;SDS011;3316;44.118;27.258;2023-06-26T03:40:05;16.55;;;7.68;;
6564;SDS011;3316;44.118;27.258;2023-06-26T03:42:31;17.25;;;7.78;;
6564;SDS011;3316;44.118;27.258;2023-06-26T03:44:57;21.50;;;8.20;;
6564;SDS011;3316;44.118;27.258;2023-06-26T03:47:22;17.17;;;7.70;;
6564;SDS011;3316;44.118;27.258;2023-06-26T03:49:47;15.90;;;8.70;;
6564;SDS011;3316;44.118;27.258;2023-06-26T03:52:13;15.50;;;7.78;;
6564;SDS011;3316;44.118;27.258;2023-06-26T03:54:38;17.05;;;7.25;;
6564;SDS011;3316;44.118;27.258;2023-06-26T03:57:04;20.02;;;7.75;;
6564;SDS011;3316;44.118;27.258;2023-06-26T03:59:29;20.85;;;8.73;;
6564;SDS011;3316;44.118;27.258;2023-06-26T04:01:55;18.70;;;8.35;;
6564;SDS011;3316;44.118;27.258;2023-06-26T04:04:21;19.65;;;7.95;;
6564;SDS011;3316;44.118;27.258;2023-06-26T04:06:47;18.65;;;8.43;;
6564;SDS011;3316;44.118;27.258;2023-06-26T04:09:12;24.92;;;9.85;;
6564;SDS011;3316;44.118;27.258;2023-06-26T04:11:37;14.98;;;9.02;;
6564;SDS011;3316;44.118;27.258;2023-06-26T04:14:03;27.50;;;10.02;;
6564;SDS011;3316;44.118;27.258;2023-06-26T04:16:28;30.25;;;10.18;;
6564;SDS011;3316;44.118;27.258;2023-06-26T04:18:54;25.05;;;9.55;;
6564;SDS011;3316;44.118;27.258;2023-06-26T04:21:21;20.88;;;8.63;;
6564;SDS011;3316;44.118;27.258;2023-06-26T04:23:49;20.75;;;9.57;;
6564;SDS011;3316;44.118;27.258;2023-06-26T04:26:15;20.42;;;8.43;;
6564;SDS011;3316;44.118;27.258;2023-06-26T04:28:41;20.17;;;8.35;;
6564;SDS011;3316;44.118;27.258;2023-06-26T04:31:07;18.67;;;7.85;;
6564;SDS011;3316;44.118;27.258;2023-06-26T04:33:33;11.55;;;6.85;;
6564;SDS011;3316;44.118;27.258;2023-06-26T04:36:01;23.02;;;10.18;;
6564;SDS011;3316;44.118;27.258;2023-06-26T04:38:29;21.17;;;8.88;;
6564;SDS011;3316;44.118;27.258;2023-06-26T04:40:56;25.42;;;11.23;;
6564;SDS011;3316;44.118;27.258;2023-06-26T04:43:21;20.92;;;8.75;;
6564;SDS011;3316;44.118;27.258;2023-06-26T04:45:46;100.70;;;39.67;;
6564;SDS011;3316;44.118;27.258;2023-06-26T04:48:12;48.92;;;19.40;;
6564;SDS011;3316;44.118;27.258;2023-06-26T04:50:38;37.13;;;16.10;;
6564;SDS011;3316;44.118;27.258;2023-06-26T04:53:05;32.63;;;12.65;;
6564;SDS011;3316;44.118;27.258;2023-06-26T04:55:31;28.52;;;16.27;;
6564;SDS011;3316;44.118;27.258;2023-06-26T04:57:56;49.63;;;20.17;;
6564;SDS011;3316;44.118;27.258;2023-06-26T05:00:21;30.20;;;11.95;;
6564;SDS011;3316;44.118;27.258;2023-06-26T05:02:47;56.33;;;25.48;;
6564;SDS011;3316;44.118;27.258;2023-06-26T05:05:13;21.42;;;9.30;;
6564;SDS011;3316;44.118;27.258;2023-06-26T05:07:38;11.40;;;6.93;;
6564;SDS011;3316;44.118;27.258;2023-06-26T05:10:06;12.73;;;7.35;;
6564;SDS011;3316;44.118;27.258;2023-06-26T05:12:32;74.32;;;33.30;;
6564;SDS011;3316;44.118;27.258;2023-06-26T05:14:57;16.58;;;8.60;;
6564;SDS011;3316;44.118;27.258;2023-06-26T05:17:22;13.60;;;9.80;;
6564;SDS011;3316;44.118;27.258;2023-06-26T05:19:48;32.75;;;17.23;;
6564;SDS011;3316;44.118;27.258;2023-06-26T05:22:13;34.00;;;14.98;;
6564;SDS011;3316;44.118;27.258;2023-06-26T05:24:40;34.38;;;16.60;;
6564;SDS011;3316;44.118;27.258;2023-06-26T05:27:06;34.47;;;18.38;;
6564;SDS011;3316;44.118;27.258;2023-06-26T05:29:32;35.42;;;18.05;;
6564;SDS011;3316;44.118;27.258;2023-06-26T05:31:58;65.07;;;28.75;;
6564;SDS011;3316;44.118;27.258;2023-06-26T05:34:25;16.15;;;9.13;;
6564;SDS011;3316;44.118;27.258;2023-06-26T05:36:59;29.92;;;13.80;;
6564;SDS011;3316;44.118;27.258;2023-06-26T05:39:25;71.07;;;28.67;;
6564;SDS011;3316;44.118;27.258;2023-06-26T05:41:51;17.33;;;9.27;;
6564;SDS011;3316;44.118;27.258;2023-06-26T05:44:17;9.75;;;6.60;;
6564;SDS011;3316;44.118;27.258;2023-06-26T05:46:43;9.40;;;5.68;;
6564;SDS011;3316;44.118;27.258;2023-06-26T05:49:08;11.90;;;5.88;;
6564;SDS011;3316;44.118;27.258;2023-06-26T05:51:34;13.02;;;6.28;;
6564;SDS011;3316;44.118;27.258;2023-06-26T05:54:00;9.32;;;6.70;;
6564;SDS011;3316;44.118;27.258;2023-06-26T05:56:25;8.43;;;6.60;;
6564;SDS011;3316;44.118;27.258;2023-06-26T05:58:51;8.57;;;6.03;;
6564;SDS011;3316;44.118;27.258;2023-06-26T06:01:17;11.40;;;7.97;;
6564;SDS011;3316;44.118;27.258;2023-06-26T06:03:44;10.07;;;6.63;;
6564;SDS011;3316;44.118;27.258;2023-06-26T06:06:10;8.50;;;5.93;;
6564;SDS011;3316;44.118;27.258;2023-06-26T06:08:36;9.50;;;6.68;;
6564;SDS011;3316;44.118;27.258;2023-06-26T06:11:01;9.90;;;6.45;;
6564;SDS011;3316;44.118;27.258;2023-06-26T06:13:27;11.90;;;5.43;;
6564;SDS011;3316;44.118;27.258;2023-06-26T06:15:53;7.97;;;6.03;;
6564;SDS011;3316;44.118;27.258;2023-06-26T06:18:19;6.50;;;5.50;;
6564;SDS011;3316;44.118;27.258;2023-06-26T06:20:45;9.38;;;5.43;;
6564;SDS011;3316;44.118;27.258;2023-06-26T06:23:10;8.13;;;5.90;;
6564;SDS011;3316;44.118;27.258;2023-06-26T06:25:36;11.27;;;5.95;;
6564;SDS011;3316;44.118;27.258;2023-06-26T06:28:01;10.23;;;5.95;;
6564;SDS011;3316;44.118;27.258;2023-06-26T06:30:27;6.72;;;5.80;;
6564;SDS011;3316;44.118;27.258;2023-06-26T06:32:53;8.13;;;5.65;;
6564;SDS011;3316;44.118;27.258;2023-06-26T06:35:18;10.32;;;5.63;;
6564;SDS011;3316;44.118;27.258;2023-06-26T06:37:44;11.35;;;6.10;;
6564;SDS011;3316;44.118;27.258;2023-06-26T06:40:10;21.30;;;6.60;;
6564;SDS011;3316;44.118;27.258;2023-06-26T06:42:36;12.73;;;6.70;;
6564;SDS011;3316;44.118;27.258;2023-06-26T06:45:04;11.15;;;5.65;;
6564;SDS011;3316;44.118;27.258;2023-06-26T06:47:33;9.40;;;6.07;;
6564;SDS011;3316;44.118;27.258;2023-06-26T06:49:59;14.27;;;6.00;;
6564;SDS011;3316;44.118;27.258;2023-06-26T06:52:32;7.03;;;5.90;;
6564;SDS011;3316;44.118;27.258;2023-06-26T06:55:05;8.35;;;5.40;;
6564;SDS011;3316;44.118;27.258;2023-06-26T06:57:33;13.18;;;5.75;;
6564;SDS011;3316;44.118;27.258;2023-06-26T07:00:06;10.10;;;5.40;;
6564;SDS011;3316;44.118;27.258;2023-06-26T07:02:34;7.65;;;6.18;;
6564;SDS011;3316;44.118;27.258;2023-06-26T07:05:01;8.68;;;5.78;;
6564;SDS011;3316;44.118;27.258;2023-06-26T07:07:28;10.27;;;6.50;;
6564;SDS011;3316;44.118;27.258;2023-06-26T07:09:59;14.07;;;5.80;;
6564;SDS011;3316;44.118;27.258;2023-06-26T07:12:25;10.32;;;6.00;;
6564;SDS011;3316;44.118;27.258;2023-06-26T07:14:50;10.48;;;6.72;;
6564;SDS011;3316;44.118;27.258;2023-06-26T07:17:16;8.80;;;6.28;;
6564;SDS011;3316;44.118;27.258;2023-06-26T07:19:41;10.10;;;6.13;;
6564;SDS011;3316;44.118;27.258;2023-06-26T07:22:07;9.18;;;6.00;;
6564;SDS011;3316;44.118;27.258;2023-06-26T07:24:32;15.25;;;6.15;;
6564;SDS011;3316;44.118;27.258;2023-06-26T07:26:57;12.80;;;6.10;;
6564;SDS011;3316;44.118;27.258;2023-06-26T07:29:23;10.60;;;5.75;;
6564;SDS011;3316;44.118;27.258;2023-06-26T07:31:48;15.98;;;6.60;;
6564;SDS011;3316;44.118;27.258;2023-06-26T07:34:14;9.15;;;5.13;;
6564;SDS011;3316;44.118;27.258;2023-06-26T07:36:39;9.18;;;5.90;;
6564;SDS011;3316;44.118;27.258;2023-06-26T07:39:05;15.02;;;7.35;;
6564;SDS011;3316;44.118;27.258;2023-06-26T07:41:31;12.75;;;7.25;;
6564;SDS011;3316;44.118;27.258;2023-06-26T07:43:57;15.35;;;9.07;;
6564;SDS011;3316;44.118;27.258;2023-06-26T07:46:23;9.25;;;5.15;;
6564;SDS011;3316;44.118;27.258;2023-06-26T07:48:48;8.05;;;4.60;;
6564;SDS011;3316;44.118;27.258;2023-06-26T07:51:13;6.65;;;5.28;;
6564;SDS011;3316;44.118;27.258;2023-06-26T07:53:39;7.85;;;4.82;;
6564;SDS011;3316;44.118;27.258;2023-06-26T07:56:04;8.93;;;5.35;;
6564;SDS011;3316;44.118;27.258;2023-06-26T07:58:30;7.82;;;5.18;;
6564;SDS011;3316;44.118;27.258;2023-06-26T08:00:55;12.75;;;7.28;;
6564;SDS011;3316;44.118;27.258;2023-06-26T08:03:21;6.57;;;4.63;;
6564;SDS011;3316;44.118;27.258;2023-06-26T08:05:46;7.68;;;4.88;;
6564;SDS011;3316;44.118;27.258;2023-06-26T08:08:12;5.90;;;4.55;;
6564;SDS011;3316;44.118;27.258;2023-06-26T08:10:37;7.35;;;5.40;;
6564;SDS011;3316;44.118;27.258;2023-06-26T08:13:02;6.38;;;4.60;;
6564;SDS011;3316;44.118;27.258;2023-06-26T08:15:28;7.43;;;4.38;;
6564;SDS011;3316;44.118;27.258;2023-06-26T08:17:53;5.90;;;4.28;;
6564;SDS011;3316;44.118;27.258;2023-06-26T08:20:19;9.15;;;4.82;;
6564;SDS011;3316;44.118;27.258;2023-06-26T08:22:45;6.38;;;4.90;;
6564;SDS011;3316;44.118;27.258;2023-06-26T08:25:13;6.07;;;4.45;;
6564;SDS011;3316;44.118;27.258;2023-06-26T08:27:38;9.75;;;4.68;;
6564;SDS011;3316;44.118;27.258;2023-06-26T08:30:04;4.57;;;3.97;;
6564;SDS011;3316;44.118;27.258;2023-06-26T08:32:30;5.22;;;4.15;;
6564;SDS011;3316;44.118;27.258;2023-06-26T08:34:55;8.15;;;5.00;;
6564;SDS011;3316;44.118;27.258;2023-06-26T08:37:21;5.45;;;4.65;;
6564;SDS011;3316;44.118;27.258;2023-06-26T08:39:47;7.43;;;4.70;;
6564;SDS011;3316;44.118;27.258;2023-06-26T08:42:13;7.15;;;4.80;;
6564;SDS011;3316;44.118;27.258;2023-06-26T08:44:39;14.02;;;7.85;;
6564;SDS011;3316;44.118;27.258;2023-06-26T08:47:04;9.18;;;5.57;;
6564;SDS011;3316;44.118;27.258;2023-06-26T08:52:24;17.55;;;8.02;;
6564;SDS011;3316;44.118;27.258;2023-06-26T08:54:57;5.53;;;4.43;;
6564;SDS011;3316;44.118;27.258;2023-06-26T08:57:24;22.23;;;5.30;;
6564;SDS011;3316;44.118;27.258;2023-06-26T08:59:51;6.38;;;5.25;;
6564;SDS011;3316;44.118;27.258;2023-06-26T09:02:17;5.40;;;4.35;;
6564;SDS011;3316;44.118;27.258;2023-06-26T09:04:43;6.88;;;4.95;;
6564;SDS011;3316;44.118;27.258;2023-06-26T09:07:09;10.77;;;6.00;;
6564;SDS011;3316;44.118;27.258;2023-06-26T09:09:35;9.00;;;5.50;;
6564;SDS011;3316;44.118;27.258;2023-06-26T09:12:03;9.77;;;5.88;;
6564;SDS011;3316;44.118;27.258;2023-06-26T09:14:29;9.98;;;4.93;;
6564;SDS011;3316;44.118;27.258;2023-06-26T09:16:54;5.97;;;4.47;;
6564;SDS011;3316;44.118;27.258;2023-06-26T09:19:20;5.45;;;4.30;;
6564;SDS011;3316;44.118;27.258;2023-06-26T09:21:46;10.10;;;5.75;;
6564;SDS011;3316;44.118;27.258;2023-06-26T09:24:15;7.78;;;5.15;;
6564;SDS011;3316;44.118;27.258;2023-06-26T09:26:41;9.18;;;4.30;;
6564;SDS011;3316;44.118;27.258;2023-06-26T09:29:08;8.88;;;5.53;;
6564;SDS011;3316;44.118;27.258;2023-06-26T09:31:38;10.60;;;5.40;;
6564;SDS011;3316;44.118;27.258;2023-06-26T09:34:04;6.45;;;4.13;;
6564;SDS011;3316;44.118;27.258;2023-06-26T09:36:30;8.93;;;5.18;;
6564;SDS011;3316;44.118;27.258;2023-06-26T09:39:04;7.43;;;4.07;;
6564;SDS011;3316;44.118;27.258;2023-06-26T09:41:35;6.20;;;4.40;;
6564;SDS011;3316;44.118;27.258;2023-06-26T09:44:04;6.10;;;4.75;;
6564;SDS011;3316;44.118;27.258;2023-06-26T09:46:30;9.40;;;4.78;;
6564;SDS011;3316;44.118;27.258;2023-06-26T09:49:06;5.53;;;4.20;;
6564;SDS011;3316;44.118;27.258;2023-06-26T09:51:39;7.88;;;4.78;;
6564;SDS011;3316;44.118;27.258;2023-06-26T09:54:06;5.38;;;4.68;;
6564;SDS011;3316;44.118;27.258;2023-06-26T09:56:33;10.45;;;6.50;;
6564;SDS011;3316;44.118;27.258;2023-06-26T09:59:00;6.15;;;4.07;;
6564;SDS011;3316;44.118;27.258;2023-06-26T10:01:30;7.25;;;5.03;;
6564;SDS011;3316;44.118;27.258;2023-06-26T10:03:56;8.35;;;4.60;;
6564;SDS011;3316;44.118;27.258;2023-06-26T10:06:31;4.47;;;3.97;;
6564;SDS011;3316;44.118;27.258;2023-06-26T10:09:01;5.82;;;4.40;;
6564;SDS011;3316;44.118;27.258;2023-06-26T10:11:36;7.90;;;4.35;;
6564;SDS011;3316;44.118;27.258;2023-06-26T10:14:06;9.00;;;5.60;;
6564;SDS011;3316;44.118;27.258;2023-06-26T10:16:34;6.40;;;3.85;;
6564;SDS011;3316;44.118;27.258;2023-06-26T10:19:04;6.63;;;4.18;;
6564;SDS011;3316;44.118;27.258;2023-06-26T10:21:31;6.32;;;4.93;;
6564;SDS011;3316;44.118;27.258;2023-06-26T10:23:59;6.45;;;4.40;;
6564;SDS011;3316;44.118;27.258;2023-06-26T10:26:28;17.10;;;5.30;;
6564;SDS011;3316;44.118;27.258;2023-06-26T10:28:54;6.43;;;4.30;;
6564;SDS011;3316;44.118;27.258;2023-06-26T10:31:23;4.85;;;4.00;;
6564;SDS011;3316;44.118;27.258;2023-06-26T10:33:51;6.20;;;4.93;;
6564;SDS011;3316;44.118;27.258;2023-06-26T10:36:26;7.82;;;4.10;;
6564;SDS011;3316;44.118;27.258;2023-06-26T10:38:57;8.18;;;3.85;;
6564;SDS011;3316;44.118;27.258;2023-06-26T10:41:24;6.38;;;4.03;;
6564;SDS011;3316;44.118;27.258;2023-06-26T10:44:12;7.22;;;4.20;;
6564;SDS011;3316;44.118;27.258;2023-06-26T10:46:53;5.47;;;4.28;;
6564;SDS011;3316;44.118;27.258;2023-06-26T10:49:20;6.50;;;4.18;;
6564;SDS011;3316;44.118;27.258;2023-06-26T10:51:50;4.72;;;4.22;;
6564;SDS011;3316;44.118;27.258;2023-06-26T10:54:19;8.05;;;3.80;;
6564;SDS011;3316;44.118;27.258;2023-06-26T10:56:48;5.38;;;3.95;;
6564;SDS011;3316;44.118;27.258;2023-06-26T10:59:22;6.40;;;4.13;;
6564;SDS011;3316;44.118;27.258;2023-06-26T11:01:56;4.45;;;3.95;;
6564;SDS011;3316;44.118;27.258;2023-06-26T11:04:38;5.00;;;3.97;;
6564;SDS011;3316;44.118;27.258;2023-06-26T11:07:15;8.10;;;4.38;;
6564;SDS011;3316;44.118;27.258;2023-06-26T11:12:46;10.35;;;4.28;;
6564;SDS011;3316;44.118;27.258;2023-06-26T11:15:14;7.25;;;4.70;;
6564;SDS011;3316;44.118;27.258;2023-06-26T11:17:42;7.90;;;4.63;;
6564;SDS011;3316;44.118;27.258;2023-06-26T11:20:11;6.85;;;4.68;;
6564;SDS011;3316;44.118;27.258;2023-06-26T11:22:39;11.52;;;4.32;;
6564;SDS011;3316;44.118;27.258;2023-06-26T11:25:06;5.55;;;4.00;;
6564;SDS011;3316;44.118;27.258;2023-06-26T11:27:39;7.28;;;3.63;;
6564;SDS011;3316;44.118;27.258;2023-06-26T11:30:05;7.28;;;3.80;;
6564;SDS011;3316;44.118;27.258;2023-06-26T11:32:32;5.78;;;4.03;;
6564;SDS011;3316;44.118;27.258;2023-06-26T11:34:59;5.13;;;3.80;;
6564;SDS011;3316;44.118;27.258;2023-06-26T11:37:25;8.40;;;4.18;;
6564;SDS011;3316;44.118;27.258;2023-06-26T11:39:50;7.22;;;4.68;;
6564;SDS011;3316;44.118;27.258;2023-06-26T11:42:17;3.97;;;3.60;;
6564;SDS011;3316;44.118;27.258;2023-06-26T11:44:43;6.70;;;4.32;;
6564;SDS011;3316;44.118;27.258;2023-06-26T11:47:18;5.30;;;4.18;;
6564;SDS011;3316;44.118;27.258;2023-06-26T11:49:45;5.50;;;4.22;;
6564;SDS011;3316;44.118;27.258;2023-06-26T11:52:12;7.03;;;4.68;;
6564;SDS011;3316;44.118;27.258;2023-06-26T11:54:39;5.20;;;4.38;;
6564;SDS011;3316;44.118;27.258;2023-06-26T11:57:06;6.95;;;3.97;;
6564;SDS011;3316;44.118;27.258;2023-06-26T11:59:38;8.15;;;4.57;;
6564;SDS011;3316;44.118;27.258;2023-06-26T12:02:08;4.78;;;3.97;;
6564;SDS011;3316;44.118;27.258;2023-06-26T12:04:38;8.13;;;4.07;;
6564;SDS011;3316;44.118;27.258;2023-06-26T12:07:07;8.45;;;4.45;;
6564;SDS011;3316;44.118;27.258;2023-06-26T12:09:38;8.55;;;4.05;;
6564;SDS011;3316;44.118;27.258;2023-06-26T12:12:05;4.43;;;3.90;;
6564;SDS011;3316;44.118;27.258;2023-06-26T12:14:31;6.60;;;3.90;;
6564;SDS011;3316;44.118;27.258;2023-06-26T12:17:03;4.85;;;3.92;;
6564;SDS011;3316;44.118;27.258;2023-06-26T12:19:30;4.60;;;4.05;;
6564;SDS011;3316;44.118;27.258;2023-06-26T12:21:55;10.68;;;4.03;;
6564;SDS011;3316;44.118;27.258;2023-06-26T12:24:22;9.60;;;4.07;;
6564;SDS011;3316;44.118;27.258;2023-06-26T12:26:52;6.55;;;4.00;;
6564;SDS011;3316;44.118;27.258;2023-06-26T12:29:21;5.40;;;4.05;;
6564;SDS011;3316;44.118;27.258;2023-06-26T12:31:51;6.10;;;3.78;;
6564;SDS011;3316;44.118;27.258;2023-06-26T12:34:21;5.70;;;4.20;;
6564;SDS011;3316;44.118;27.258;2023-06-26T12:36:51;6.82;;;4.05;;
6564;SDS011;3316;44.118;27.258;2023-06-26T12:39:18;6.30;;;3.92;;
6564;SDS011;3316;44.118;27.258;2023-06-26T12:41:57;5.75;;;3.70;;
6564;SDS011;3316;44.118;27.258;2023-06-26T12:44:25;4.40;;;3.88;;
6564;SDS011;3316;44.118;27.258;2023-06-26T12:46:59;8.00;;;3.92;;
6564;SDS011;3316;44.118;27.258;2023-06-26T12:49:35;6.47;;;4.70;;
6564;SDS011;3316;44.118;27.258;2023-06-26T12:52:03;9.13;;;4.45;;
6564;SDS011;3316;44.118;27.258;2023-06-26T12:54:30;12.02;;;5.03;;
6564;SDS011;3316;44.118;27.258;2023-06-26T12:56:56;4.95;;;4.30;;
6564;SDS011;3316;44.118;27.258;2023-06-26T12:59:22;6.68;;;4.10;;
6564;SDS011;3316;44.118;27.258;2023-06-26T13:01:48;5.63;;;3.83;;
6564;SDS011;3316;44.118;27.258;2023-06-26T13:04:14;4.38;;;3.97;;
6564;SDS011;3316;44.118;27.258;2023-06-26T13:06:40;9.15;;;4.43;;
6564;SDS011;3316;44.118;27.258;2023-06-26T13:09:06;5.05;;;3.97;;
6564;SDS011;3316;44.118;27.258;2023-06-26T13:11:32;3.92;;;3.50;;
6564;SDS011;3316;44.118;27.258;2023-06-26T13:13:58;6.68;;;4.32;;
6564;SDS011;3316;44.118;27.258;2023-06-26T13:16:24;6.15;;;3.47;;
6564;SDS011;3316;44.118;27.258;2023-06-26T13:18:50;11.98;;;4.20;;
6564;SDS011;3316;44.118;27.258;2023-06-26T13:21:16;7.03;;;4.25;;
6564;SDS011;3316;44.118;27.258;2023-06-26T13:23:43;6.97;;;3.90;;
6564;SDS011;3316;44.118;27.258;2023-06-26T13:26:09;4.65;;;3.50;;
6564;SDS011;3316;44.118;27.258;2023-06-26T13:28:34;9.93;;;4.50;;
6564;SDS011;3316;44.118;27.258;2023-06-26T13:31:00;6.72;;;3.88;;
6564;SDS011;3316;44.118;27.258;2023-06-26T13:33:26;5.93;;;3.75;;
6564;SDS011;3316;44.118;27.258;2023-06-26T13:35:51;6.82;;;4.00;;
6564;SDS011;3316;44.118;27.258;2023-06-26T13:38:18;3.95;;;3.55;;
6564;SDS011;3316;44.118;27.258;2023-06-26T13:40:49;4.35;;;3.55;;
6564;SDS011;3316;44.118;27.258;2023-06-26T13:43:18;6.03;;;3.72;;
6564;SDS011;3316;44.118;27.258;2023-06-26T13:45:45;4.47;;;3.63;;
6564;SDS011;3316;44.118;27.258;2023-06-26T13:48:11;6.75;;;3.05;;
6564;SDS011;3316;44.118;27.258;2023-06-26T13:50:36;4.45;;;3.22;;
6564;SDS011;3316;44.118;27.258;2023-06-26T13:53:02;6.03;;;3.20;;
6564;SDS011;3316;44.118;27.258;2023-06-26T13:55:27;4.07;;;3.60;;
6564;SDS011;3316;44.118;27.258;2023-06-26T13:57:53;6.32;;;3.42;;
6564;SDS011;3316;44.118;27.258;2023-06-26T14:00:20;5.13;;;3.60;;
6564;SDS011;3316;44.118;27.258;2023-06-26T14:02:47;7.70;;;3.38;;
6564;SDS011;3316;44.118;27.258;2023-06-26T14:05:13;5.05;;;3.35;;
6564;SDS011;3316;44.118;27.258;2023-06-26T14:07:38;5.93;;;3.55;;
6564;SDS011;3316;44.118;27.258;2023-06-26T14:10:04;5.38;;;4.05;;
6564;SDS011;3316;44.118;27.258;2023-06-26T14:12:31;4.22;;;3.20;;
6564;SDS011;3316;44.118;27.258;2023-06-26T14:14:57;9.55;;;4.00;;
6564;SDS011;3316;44.118;27.258;2023-06-26T14:17:23;6.93;;;3.60;;
6564;SDS011;3316;44.118;27.258;2023-06-26T14:19:50;4.55;;;3.10;;
6564;SDS011;3316;44.118;27.258;2023-06-26T14:22:18;5.20;;;4.00;;
6564;SDS011;3316;44.118;27.258;2023-06-26T14:24:44;4.07;;;3.30;;
6564;SDS011;3316;44.118;27.258;2023-06-26T14:27:09;8.07;;;3.60;;
6564;SDS011;3316;44.118;27.258;2023-06-26T14:29:35;6.43;;;3.63;;
6564;SDS011;3316;44.118;27.258;2023-06-26T14:32:01;5.65;;;3.30;;
6564;SDS011;3316;44.118;27.258;2023-06-26T14:34:27;7.43;;;3.60;;
6564;SDS011;3316;44.118;27.258;2023-06-26T14:36:52;6.57;;;3.38;;
6564;SDS011;3316;44.118;27.258;2023-06-26T14:39:18;5.43;;;3.40;;
6564;SDS011;3316;44.118;27.258;2023-06-26T14:41:43;5.18;;;3.80;;
6564;SDS011;3316;44.118;27.258;2023-06-26T14:44:09;5.30;;;3.35;;
6564;SDS011;3316;44.118;27.258;2023-06-26T14:46:36;4.50;;;3.50;;
6564;SDS011;3316;44.118;27.258;2023-06-26T14:49:02;6.25;;;3.58;;
6564;SDS011;3316;44.118;27.258;2023-06-26T14:51:28;4.70;;;3.55;;
6564;SDS011;3316;44.118;27.258;2023-06-26T14:53:53;9.15;;;3.90;;
6564;SDS011;3316;44.118;27.258;2023-06-26T14:56:19;5.18;;;3.40;;
6564;SDS011;3316;44.118;27.258;2023-06-26T14:58:45;5.55;;;3.38;;